Time;durP1;ratioP1;P1;durP2;ratioP2;P2;SDS_P1;SDS_P2;PMS_P1;PMS_P2;Temp;Humidity;BMP_temperature;BMP_pressure;BME280_temperature;BME280_humidity;BME280_pressure;Samples;Min_cycle;Max_cycle;Signal;HPM_P1;HPM_P2
2022/08/29 03:14:50;;;;;;;15.77;14.07;;;21.60;99.90;;;;;;5091697;27;20402;-58
2022/08/29 03:17:16;;;;;;;17.95;13.02;;;21.40;99.90;;;;;;5086458;28;20094;-56
2022/08/29 03:19:42;;;;;;;18.63;13.75;;;21.50;99.90;;;;;;5073126;28;20111;-56
2022/08/29 03:22:08;;;;;;;15.73;13.63;;;21.50;99.90;;;;;;5082086;28;20028;-57
2022/08/29 03:24:35;;;;;;;16.02;13.70;;;21.60;99.90;;;;;;5078775;28;20063;-54
2022/08/29 03:27:01;;;;;;;19.23;13.68;;;;;;;;;;5051048;28;20047;-61
2022/08/29 03:29:27;;;;;;;16.73;12.98;;;21.80;99.90;;;;;;5078222;28;20033;-53
2022/08/29 03:31:57;;;;;;;18.13;13.50;;;21.80;99.90;;;;;;5083681;28;20437;-60
2022/08/29 03:34:24;;;;;;;13.73;12.23;;;;;;;;;;5076441;28;20025;-56
2022/08/29 03:36:50;;;;;;;16.80;12.48;;;21.90;99.90;;;;;;5072887;28;20468;-58
2022/08/29 03:39:16;;;;;;;15.23;13.35;;;22.00;99.90;;;;;;5075597;28;20059;-60
2022/08/29 03:41:42;;;;;;;18.48;13.68;;;21.70;99.90;;;;;;5079648;28;20033;-60
2022/08/29 03:44:08;;;;;;;16.83;14.93;;;21.40;99.90;;;;;;5048445;28;20097;-61
2022/08/29 03:46:38;;;;;;;14.40;12.43;;;21.60;99.90;;;;;;5076399;28;20025;-59
2022/08/29 03:49:05;;;;;;;16.23;14.20;;;21.70;99.90;;;;;;5079752;28;20054;-63
2022/08/29 03:51:33;;;;;;;15.90;12.23;;;21.80;99.90;;;;;;5080676;28;20510;-57
2022/08/29 03:53:59;;;;;;;18.23;13.63;;;22.00;99.90;;;;;;5077754;28;20035;-59
2022/08/29 03:56:26;;;;;;;18.20;14.30;;;22.00;99.90;;;;;;5076194;28;20028;-59
2022/08/29 03:58:52;;;;;;;17.73;13.57;;;22.00;99.90;;;;;;5071334;28;20036;-56
2022/08/29 04:01:18;;;;;;;15.65;13.90;;;21.80;99.90;;;;;;5074660;28;20044;-52
2022/08/29 04:03:44;;;;;;;21.15;13.88;;;21.70;99.90;;;;;;5078862;28;20471;-59
2022/08/29 04:06:10;;;;;;;21.63;13.85;;;21.90;99.90;;;;;;5079459;28;20076;-61
2022/08/29 04:08:37;;;;;;;16.92;13.07;;;21.90;99.90;;;;;;5073330;28;20059;-57
2022/08/29 04:11:11;;;;;;;16.45;12.88;;;22.00;99.90;;;;;;5069587;28;20085;-53
2022/08/29 04:13:37;;;;;;;16.08;12.70;;;22.10;99.90;;;;;;5075691;28;20052;-57
2022/08/29 04:16:14;;;;;;;16.35;12.63;;;22.10;99.90;;;;;;5059780;28;20393;-59
2022/08/29 04:18:40;;;;;;;15.50;13.00;;;22.10;99.90;;;;;;5013811;28;20196;-54
2022/08/29 04:21:09;;;;;;;16.13;12.63;;;;;;;;;;5040950;28;20146;-56
2022/08/29 04:23:36;;;;;;;16.88;13.60;;;22.30;99.90;;;;;;5040587;28;20100;-58
2022/08/29 04:26:02;;;;;;;16.38;13.75;;;22.30;99.90;;;;;;5043694;28;20041;-59
2022/08/29 04:28:28;;;;;;;19.52;14.20;;;22.40;99.90;;;;;;5016420;28;20072;-60
2022/08/29 04:30:54;;;;;;;17.38;13.85;;;22.30;99.90;;;;;;5037135;28;20160;-54
2022/08/29 04:33:23;;;;;;;18.85;13.38;;;22.40;99.90;;;;;;5040129;28;20137;-55
2022/08/29 04:35:50;;;;;;;19.35;14.30;;;22.40;99.90;;;;;;5042311;28;20029;-60
2022/08/29 04:38:16;;;;;;;19.10;13.32;;;22.50;99.90;;;;;;5041791;28;20052;-56
2022/08/29 04:40:43;;;;;;;19.15;14.05;;;22.50;99.90;;;;;;5035444;28;20622;-54
2022/08/29 04:43:09;;;;;;;18.58;14.20;;;22.40;99.90;;;;;;5032467;28;20041;-58
2022/08/29 04:45:36;;;;;;;18.50;12.93;;;22.40;99.90;;;;;;5032269;28;20056;-59
2022/08/29 04:48:03;;;;;;;22.65;13.95;;;22.40;99.90;;;;;;5004109;28;20570;-58
2022/08/29 04:50:29;;;;;;;17.92;13.60;;;22.40;99.90;;;;;;5033600;28;20091;-63
2022/08/29 04:52:55;;;;;;;17.80;13.95;;;22.50;99.90;;;;;;5071576;28;20051;-58
2022/08/29 04:55:23;;;;;;;18.98;13.77;;;22.50;99.90;;;;;;5069113;28;20130;-65
2022/08/29 04:57:51;;;;;;;22.92;15.40;;;22.50;99.90;;;;;;5075405;28;20024;-56
2022/08/29 05:00:21;;;;;;;17.48;14.77;;;22.40;99.90;;;;;;5071698;28;20074;-61
2022/08/29 05:02:47;;;;;;;16.08;14.38;;;22.50;99.90;;;;;;5070286;28;20075;-59
2022/08/29 05:05:14;;;;;;;16.95;14.45;;;22.50;99.90;;;;;;5074234;28;20626;-62
2022/08/29 05:07:41;;;;;;;21.70;14.50;;;22.40;99.90;;;;;;5072773;28;20036;-55
2022/08/29 05:10:13;;;;;;;15.63;14.02;;;22.50;99.90;;;;;;5042449;28;20043;-60
2022/08/29 05:12:40;;;;;;;16.35;14.13;;;22.50;99.90;;;;;;5075947;28;20020;-56
2022/08/29 05:15:06;;;;;;;23.20;15.63;;;22.40;99.90;;;;;;5071085;28;20119;-56
2022/08/29 05:17:33;;;;;;;19.38;13.77;;;22.40;99.90;;;;;;5045696;28;20032;-57
2022/08/29 05:19:59;;;;;;;18.85;14.50;;;22.50;99.90;;;;;;5070088;28;20032;-62
2022/08/29 05:22:26;;;;;;;21.50;15.10;;;22.60;99.90;;;;;;5078329;28;20133;-58
2022/08/29 05:24:52;;;;;;;21.65;15.68;;;22.50;99.90;;;;;;5071984;28;20109;-57
2022/08/29 05:27:20;;;;;;;22.33;15.05;;;22.60;99.90;;;;;;5067730;28;20499;-54
2022/08/29 05:29:48;;;;;;;16.95;14.32;;;22.60;99.90;;;;;;5065998;28;20500;-55
2022/08/29 05:32:16;;;;;;;17.88;14.70;;;22.60;99.90;;;;;;5044643;28;20037;-58
2022/08/29 05:34:43;;;;;;;17.90;13.63;;;22.60;99.90;;;;;;5055401;28;20032;-57
2022/08/29 05:37:13;;;;;;;20.10;15.20;;;22.60;99.90;;;;;;5059855;28;20033;-55
2022/08/29 05:39:40;;;;;;;19.55;14.85;;;22.60;99.90;;;;;;5058616;28;20104;-57
2022/08/29 05:42:08;;;;;;;17.02;13.23;;;22.60;99.90;;;;;;5053582;28;20090;-57
2022/08/29 05:44:35;;;;;;;16.92;12.88;;;22.60;99.90;;;;;;5054118;28;20025;-56
2022/08/29 05:47:02;;;;;;;19.30;13.43;;;22.60;99.90;;;;;;5022734;28;20045;-59
2022/08/29 05:49:28;;;;;;;16.30;12.75;;;22.70;99.90;;;;;;4980888;28;20049;-58
2022/08/29 05:51:55;;;;;;;18.98;14.13;;;22.70;99.90;;;;;;5035255;28;20508;-57
2022/08/29 05:54:22;;;;;;;16.45;12.70;;;22.80;99.90;;;;;;5027893;28;20730;-56
2022/08/29 05:56:49;;;;;;;17.13;13.40;;;22.80;99.90;;;;;;5023756;28;20556;-55
2022/08/29 05:59:18;;;;;;;14.35;12.07;;;22.90;99.90;;;;;;5024436;28;20077;-58
2022/08/29 06:01:45;;;;;;;17.77;13.20;;;23.00;99.90;;;;;;5034539;28;20087;-56
2022/08/29 06:04:12;;;;;;;15.07;11.75;;;23.10;99.90;;;;;;5027305;28;20041;-57
2022/08/29 06:06:40;;;;;;;15.25;12.85;;;23.20;99.90;;;;;;5021682;28;20053;-53
2022/08/29 06:09:07;;;;;;;17.52;14.18;;;23.20;99.90;;;;;;5025172;28;20032;-58
2022/08/29 06:11:33;;;;;;;16.50;12.40;;;23.30;99.90;;;;;;5033639;28;20044;-55
2022/08/29 06:14:00;;;;;;;17.77;12.32;;;;;;;;;;5021401;28;20049;-53
2022/08/29 06:16:28;;;;;;;12.05;10.40;;;23.40;99.90;;;;;;5021501;28;20045;-55
2022/08/29 06:18:54;;;;;;;14.45;11.18;;;23.50;99.90;;;;;;5028256;28;20037;-60
2022/08/29 06:21:21;;;;;;;13.43;10.85;;;23.60;99.90;;;;;;5029162;28;20366;-56
2022/08/29 06:23:47;;;;;;;13.60;11.27;;;23.70;99.90;;;;;;5000087;28;20059;-60
2022/08/29 06:26:14;;;;;;;14.40;10.18;;;23.70;99.90;;;;;;5064973;28;20550;-54
2022/08/29 06:28:44;;;;;;;13.38;9.52;;;23.70;99.90;;;;;;5075375;28;20044;-54
2022/08/29 06:31:16;;;;;;;16.83;11.02;;;23.70;99.90;;;;;;5065915;28;20028;-56
2022/08/29 06:33:42;;;;;;;11.23;9.02;;;23.90;99.90;;;;;;5061174;28;20031;-58
2022/08/29 06:36:09;;;;;;;12.77;10.20;;;23.90;99.90;;;;;;5054747;28;20029;-58
2022/08/29 06:38:35;;;;;;;12.60;10.23;;;;;;;;;;5057761;28;20078;-59
2022/08/29 06:41:11;;;;;;;10.75;9.52;;;23.90;99.90;;;;;;5059011;28;20021;-53
2022/08/29 06:43:37;;;;;;;12.50;9.52;;;23.80;99.90;;;;;;5063148;28;20041;-55
2022/08/29 06:46:03;;;;;;;12.68;9.52;;;23.70;99.90;;;;;;5054588;28;20040;-55
2022/08/29 06:48:29;;;;;;;14.07;9.77;;;23.80;99.90;;;;;;5058322;28;20029;-54
2022/08/29 06:50:55;;;;;;;10.48;9.38;;;23.90;99.90;;;;;;5062658;28;20052;-58
2022/08/29 06:53:21;;;;;;;11.52;9.75;;;23.90;99.90;;;;;;5052939;28;20112;-52
2022/08/29 06:55:47;;;;;;;14.88;9.65;;;24.00;99.90;;;;;;5057549;28;20024;-55
2022/08/29 06:58:13;;;;;;;11.70;10.13;;;24.10;99.90;;;;;;5058153;28;20020;-54
2022/08/29 07:00:40;;;;;;;10.90;8.57;;;24.20;99.90;;;;;;5083194;28;20366;-55
2022/08/29 07:03:07;;;;;;;12.30;9.63;;;;;;;;;;5059654;28;20566;-57
2022/08/29 07:16:37;;;;;;;10.63;8.93;;;24.40;99.90;;;;;;5140149;27;20444;-49
2022/08/29 07:19:06;;;;;;;12.88;9.15;;;24.90;99.90;;;;;;5119429;27;20023;-55
2022/08/29 07:21:32;;;;;;;14.75;9.18;;;25.00;99.90;;;;;;5121028;27;20023;-54
2022/08/29 07:23:58;;;;;;;18.98;9.30;;;25.10;99.90;;;;;;5122908;28;20024;-54
2022/08/29 07:26:28;;;;;;;15.35;9.77;;;25.30;99.90;;;;;;5080435;28;20119;-54
2022/08/29 07:28:57;;;;;;;11.48;9.30;;;25.50;99.90;;;;;;5115986;28;20034;-54
2022/08/29 07:42:44;;;;;;;11.93;9.48;;;26.00;99.90;;;;;;5058721;28;20403;-54
2022/08/29 07:45:11;;;;;;;11.00;9.82;;;26.20;99.90;;;;;;5037370;28;20632;-55
2022/08/29 07:47:37;;;;;;;11.43;9.43;;;26.40;99.90;;;;;;5034125;28;20033;-55
2022/08/29 07:50:09;;;;;;;12.80;8.95;;;26.20;99.90;;;;;;5036663;28;20108;-54
2022/08/29 07:52:35;;;;;;;;;;;26.40;99.90;;;;;;4990537;28;20047;-55
2022/08/29 07:55:03;;;;;;;12.25;9.60;;;;;;;;;;4995057;28;20336;-54
2022/08/29 07:57:29;;;;;;;11.93;8.85;;;27.00;99.90;;;;;;4952302;28;20053;-54
2022/08/29 07:59:55;;;;;;;11.38;9.98;;;27.20;99.90;;;;;;4962719;28;20042;-55
2022/08/29 08:02:21;;;;;;;12.73;9.68;;;27.30;99.90;;;;;;4959921;28;20035;-54
2022/08/29 08:04:47;;;;;;;14.90;9.68;;;27.40;99.90;;;;;;4925358;28;20090;-55
2022/08/29 08:07:13;;;;;;;15.50;9.07;;;;;;;;;;4923119;28;20039;-54
2022/08/29 08:09:39;;;;;;;11.07;8.73;;;27.80;99.90;;;;;;4955200;28;20119;-54
2022/08/29 08:12:06;;;;;;;11.82;8.82;;;;;;;;;;4924642;28;20118;-54
2022/08/29 08:14:33;;;;;;;14.02;9.13;;;28.40;99.90;;;;;;4957780;28;20039;-54
2022/08/29 08:16:59;;;;;;;14.70;9.23;;;28.40;99.90;;;;;;4955781;28;20039;-54
2022/08/29 08:19:25;;;;;;;10.52;8.18;;;;;;;;;;4951650;28;20043;-54
2022/08/29 08:21:52;;;;;;;14.57;10.10;;;28.50;99.90;;;;;;4950857;28;20593;-54
2022/08/29 08:24:18;;;;;;;10.20;8.05;;;28.80;99.90;;;;;;4984429;28;20035;-54
2022/08/29 08:26:44;;;;;;;13.60;8.60;;;28.50;99.90;;;;;;4993853;28;20058;-54
2022/08/29 08:29:11;;;;;;;9.98;8.82;;;28.50;99.90;;;;;;5029183;28;20451;-54
2022/08/29 08:31:46;;;;;;;10.68;8.25;;;28.60;99.90;;;;;;5037522;28;20046;-56
2022/08/29 08:34:14;;;;;;;14.77;8.93;;;28.70;99.90;;;;;;5034373;28;20045;-54
2022/08/29 08:36:41;;;;;;;11.55;8.88;;;28.70;99.90;;;;;;5006043;28;20041;-55
2022/08/29 08:39:08;;;;;;;12.82;8.95;;;;;;;;;;5036234;28;20029;-54
2022/08/29 08:41:48;;;;;;;14.23;8.00;;;;;;;;;;4998168;28;20382;-55
2022/08/29 08:44:50;;;;;;;13.70;9.25;;;29.00;99.90;;;;;;5023451;28;20037;-56
2022/08/29 08:47:25;;;;;;;11.20;8.73;;;;;;;;;;5022302;28;20046;-55
2022/08/29 08:49:57;;;;;;;11.43;9.48;;;29.40;99.90;;;;;;5029138;28;20033;-55
2022/08/29 08:53:04;;;;;;;11.38;8.40;;;29.30;99.90;;;;;;5021477;28;20045;-56
2022/08/29 08:55:32;;;;;;;10.98;8.27;;;29.30;99.90;;;;;;4915181;29;20539;-55
2022/08/29 08:58:05;;;;;;;11.15;8.77;;;;;;;;;;4899653;29;20040;-55
2022/08/29 09:00:39;;;;;;;10.50;8.70;;;29.70;99.90;;;;;;4914953;29;20604;-56
2022/08/29 09:03:05;;;;;;;9.90;8.15;;;;;;;;;;4914337;29;20484;-56
2022/08/29 09:05:47;;;;;;;10.93;8.25;;;30.00;99.90;;;;;;4914774;29;20028;-57
2022/08/29 09:08:32;;;;;;;10.82;8.40;;;30.00;99.90;;;;;;4912657;29;20040;-56
2022/08/29 09:11:02;;;;;;;8.80;7.90;;;30.00;99.90;;;;;;4914568;29;20040;-56
2022/08/29 09:13:52;;;;;;;9.15;8.25;;;30.00;99.90;;;;;;4913770;29;20692;-56
2022/08/29 09:16:28;;;;;;;10.25;8.32;;;30.00;99.90;;;;;;4915260;29;20043;-56
2022/08/29 09:18:58;;;;;;;11.15;8.02;;;;;;;;;;4912040;29;20076;-55
2022/08/29 09:21:25;;;;;;;9.23;7.70;;;;;;;;;;4915124;29;20095;-56
2022/08/29 09:23:54;;;;;;;10.15;7.82;;;;;;;;;;4914614;29;20124;-56
2022/08/29 09:26:22;;;;;;;10.40;7.40;;;30.60;99.90;;;;;;4914321;29;20046;-56
2022/08/29 09:28:48;;;;;;;9.50;7.53;;;;;;;;;;4912205;29;20103;-56
2022/08/29 09:31:19;;;;;;;13.88;7.95;;;;;;;;;;4922494;28;20131;-56
2022/08/29 09:33:52;;;;;;;10.95;7.07;;;;;;;;;;4988518;28;20072;-57
2022/08/29 09:36:37;;;;;;;8.23;7.38;;;;;;;;;;5018849;28;20034;-56
2022/08/29 09:39:17;;;;;;;8.05;6.97;;;;;;;;;;5020581;28;20037;-55
2022/08/29 09:41:45;;;;;;;8.32;7.38;;;31.40;99.90;;;;;;5025585;28;20496;-56
2022/08/29 09:44:25;;;;;;;9.95;7.70;;;31.40;99.90;;;;;;5018615;28;20041;-56
2022/08/29 09:47:13;;;;;;;12.18;7.53;;;31.50;99.90;;;;;;5017136;28;20480;-55
2022/08/29 09:49:40;;;;;;;13.18;7.47;;;;;;;;;;4990771;28;20125;-56
2022/08/29 09:52:15;;;;;;;10.95;7.50;;;31.70;99.90;;;;;;5025455;28;20037;-56
2022/08/29 09:54:42;;;;;;;9.68;7.35;;;31.70;99.90;;;;;;5021454;28;20029;-57
2022/08/29 09:57:21;;;;;;;11.52;7.90;;;32.00;99.90;;;;;;5023306;28;20084;-57
2022/08/29 09:59:50;;;;;;;12.10;7.53;;;;;;;;;;5024616;28;20034;-56
2022/08/29 10:02:18;;;;;;;8.02;6.75;;;32.10;99.90;;;;;;5024642;28;20495;-56
2022/08/29 10:04:58;;;;;;;7.95;7.15;;;32.00;99.90;;;;;;4985772;28;20580;-56
2022/08/29 10:07:31;;;;;;;10.27;6.90;;;32.30;99.90;;;;;;5024046;28;20030;-56
2022/08/29 10:10:03;;;;;;;9.90;6.72;;;31.60;99.90;;;;;;5019323;28;20512;-56
2022/08/29 10:12:54;;;;;;;8.35;6.82;;;31.90;99.90;;;;;;5020994;28;20034;-55
2022/08/29 10:15:42;;;;;;;13.30;6.90;;;32.30;99.90;;;;;;5020422;28;20033;-55
2022/08/29 10:18:19;;;;;;;9.80;6.82;;;32.10;99.90;;;;;;5021533;28;20036;-56
2022/08/29 10:20:55;;;;;;;7.07;6.22;;;32.10;99.90;;;;;;5018799;28;20488;-56
2022/08/29 10:23:38;;;;;;;9.00;7.05;;;32.60;99.90;;;;;;5017355;28;20515;-56
2022/08/29 10:26:25;;;;;;;17.48;11.00;;;32.80;99.90;;;;;;5018946;28;20034;-56
2022/08/29 10:29:06;;;;;;;9.07;7.00;;;33.30;99.90;;;;;;5020589;28;20052;-56
2022/08/29 10:31:43;;;;;;;7.32;6.53;;;33.60;99.90;;;;;;5023759;28;20065;-56
2022/08/29 10:34:23;;;;;;;8.40;7.47;;;33.20;99.90;;;;;;5021331;28;20032;-56
2022/08/29 10:36:58;;;;;;;8.05;7.15;;;32.80;99.90;;;;;;5019354;28;20030;-56
2022/08/29 10:39:45;;;;;;;8.80;6.13;;;32.90;99.90;;;;;;5019697;28;20466;-56
2022/08/29 10:42:18;;;;;;;11.95;7.32;;;32.50;99.90;;;;;;5024917;28;20053;-56
2022/08/29 10:45:08;;;;;;;8.45;6.25;;;32.40;99.90;;;;;;5023261;28;20068;-57
2022/08/29 10:48:04;;;;;;;6.88;6.18;;;32.80;99.90;;;;;;5020237;28;20037;-56
2022/08/29 10:50:56;;;;;;;6.53;5.93;;;32.60;99.90;;;;;;4936531;29;20048;-56
2022/08/29 10:53:28;;;;;;;8.35;6.38;;;32.90;99.90;;;;;;4892871;29;20557;-56
2022/08/29 10:56:13;;;;;;;10.02;6.57;;;33.50;99.90;;;;;;4898755;29;20028;-56
2022/08/29 10:58:50;;;;;;;8.07;6.13;;;33.60;99.90;;;;;;4899054;29;20036;-56
2022/08/29 11:01:20;;;;;;;7.32;6.38;;;33.90;99.90;;;;;;4899845;29;20103;-56
2022/08/29 11:04:07;;;;;;;9.60;5.97;;;33.50;99.90;;;;;;4897664;29;20041;-56
2022/08/29 11:07:05;;;;;;;10.98;6.38;;;33.70;99.90;;;;;;4897094;29;20493;-56
2022/08/29 11:09:50;;;;;;;10.43;6.90;;;34.10;99.90;;;;;;4894338;29;20040;-56
2022/08/29 11:12:18;;;;;;;7.30;6.43;;;34.20;99.90;;;;;;4896401;29;20049;-57
2022/08/29 11:15:02;;;;;;;10.73;6.57;;;34.40;99.90;;;;;;4899869;29;20071;-56
2022/08/29 11:17:33;;;;;;;9.07;6.50;;;34.50;99.90;;;;;;4879986;29;20102;-55
2022/08/29 11:20:14;;;;;;;9.77;7.25;;;34.10;99.90;;;;;;4878265;29;20150;-54
2022/08/29 11:22:46;;;;;;;8.95;6.28;;;34.60;99.90;;;;;;4878357;29;20388;-54
2022/08/29 11:25:15;;;;;;;8.40;5.80;;;34.80;99.90;;;;;;4876080;29;20036;-55
2022/08/29 11:27:50;;;;;;;6.40;5.78;;;34.50;99.90;;;;;;4901505;29;20051;-55
2022/08/29 11:30:21;;;;;;;8.82;5.57;;;34.40;99.90;;;;;;4938797;28;20089;-54
2022/08/29 11:32:52;;;;;;;8.70;6.05;;;34.40;99.90;;;;;;4969638;28;20035;-54
2022/08/29 11:35:23;;;;;;;6.40;5.63;;;34.90;99.90;;;;;;4969383;28;20058;-55
2022/08/29 11:38:12;;;;;;;8.63;6.47;;;35.00;99.90;;;;;;4937819;28;20041;-54
2022/08/29 11:41:15;;;;;;;9.05;6.20;;;35.20;99.90;;;;;;4965881;28;20047;-57
2022/08/29 11:43:44;;;;;;;7.72;6.28;;;34.40;99.90;;;;;;4947806;28;20056;-61
2022/08/29 11:46:13;;;;;;;6.82;5.78;;;34.40;99.90;;;;;;4940940;28;20553;-56
2022/08/29 11:48:45;;;;;;;6.80;6.07;;;34.70;99.90;;;;;;4979263;28;20061;-63
2022/08/29 11:51:32;;;;;;;8.52;6.13;;;34.30;99.90;;;;;;4995310;28;20136;-58
2022/08/29 11:54:24;;;;;;;7.97;5.30;;;33.80;99.90;;;;;;4992600;28;20053;-56
2022/08/29 11:56:59;;;;;;;7.38;5.32;;;33.20;99.90;;;;;;4893385;29;20056;-55
2022/08/29 11:59:49;;;;;;;7.55;5.40;;;33.10;99.90;;;;;;4894039;29;20037;-57
2022/08/29 12:02:27;;;;;;;7.55;6.88;;;33.30;99.90;;;;;;4894113;29;20626;-56
2022/08/29 12:05:12;;;;;;;6.60;5.20;;;34.00;99.90;;;;;;4894631;29;20068;-56
2022/08/29 12:07:43;;;;;;;8.50;5.63;;;34.60;99.90;;;;;;4892622;29;20112;-56
2022/08/29 12:10:27;;;;;;;8.30;6.32;;;33.90;99.90;;;;;;4894712;29;20571;-56
2022/08/29 12:12:55;;;;;;;6.47;5.65;;;33.70;99.90;;;;;;4893974;29;20044;-56
2022/08/29 12:15:33;;;;;;;9.15;6.05;;;33.30;99.90;;;;;;4892242;29;20049;-52
2022/08/29 12:18:00;;;;;;;9.10;5.90;;;33.00;99.90;;;;;;4895246;29;20033;-56
2022/08/29 12:20:34;;;;;;;11.05;5.63;;;33.10;99.90;;;;;;4896508;29;20563;-54
2022/08/29 12:23:09;;;;;;;8.15;5.60;;;33.10;99.90;;;;;;4895790;29;20103;-56
2022/08/29 12:25:45;;;;;;;7.53;5.97;;;33.00;99.90;;;;;;4896789;29;20074;-54
2022/08/29 12:28:19;;;;;;;7.80;6.28;;;33.10;99.90;;;;;;4898482;29;20128;-56
2022/08/29 12:31:13;;;;;;;8.27;5.90;;;33.30;99.90;;;;;;4896547;29;20104;-56
2022/08/29 12:34:04;;;;;;;10.73;5.28;;;33.60;99.90;;;;;;4897861;28;20035;-56
2022/08/29 12:36:36;;;;;;;8.80;5.50;;;33.50;99.90;;;;;;4958558;28;20027;-57
2022/08/29 12:39:07;;;;;;;6.55;4.88;;;33.10;99.90;;;;;;4954649;28;20403;-58
2022/08/29 12:42:03;;;;;;;8.77;5.68;;;32.90;99.90;;;;;;4971301;28;20046;-57
2022/08/29 12:44:46;;;;;;;7.30;5.63;;;32.60;99.90;;;;;;4980295;28;20046;-53
2022/08/29 12:47:27;;;;;;;8.18;5.30;;;32.40;99.90;;;;;;4945238;28;20049;-56
2022/08/29 12:49:57;;;;;;;5.97;4.72;;;32.40;99.90;;;;;;4981445;28;20034;-52
2022/08/29 12:52:36;;;;;;;8.88;5.10;;;32.70;99.90;;;;;;4983534;28;20195;-57
2022/08/29 12:55:26;;;;;;;9.20;5.88;;;33.40;99.90;;;;;;4981845;28;20053;-57
2022/08/29 12:57:52;;;;;;;9.35;4.78;;;33.70;99.90;;;;;;4980385;28;20045;-53
2022/08/29 13:00:23;;;;;;;6.47;4.95;;;34.10;99.90;;;;;;4976946;28;20022;-54
2022/08/29 13:03:08;;;;;;;5.93;5.07;;;34.40;99.90;;;;;;4974424;28;20034;-60
2022/08/29 13:05:36;;;;;;;10.77;5.35;;;34.50;99.90;;;;;;4974453;28;20109;-55
2022/08/29 13:08:08;;;;;;;6.65;5.28;;;34.30;99.90;;;;;;4985055;28;20034;-52
2022/08/29 13:10:50;;;;;;;6.88;4.72;;;34.90;99.90;;;;;;4999962;28;20401;-54
2022/08/29 13:13:20;;;;;;;5.50;4.72;;;34.90;99.90;;;;;;5016489;28;20056;-57
2022/08/29 13:15:56;;;;;;;14.75;5.53;;;35.20;99.90;;;;;;5024637;28;20018;-54
2022/08/29 13:18:22;;;;;;;8.35;5.05;;;35.30;99.90;;;;;;4970090;28;20133;-54
2022/08/29 13:21:11;;;;;;;8.52;5.05;;;35.10;99.20;;;;;;5019280;28;20033;-54
2022/08/29 13:23:44;;;;;;;6.50;5.07;;;34.60;99.90;;;;;;4979448;28;20544;-53
2022/08/29 13:26:13;;;;;;;6.68;4.80;;;34.40;99.90;;;;;;5019191;28;20083;-56
2022/08/29 13:28:52;;;;;;;5.60;4.50;;;34.70;99.90;;;;;;5019212;28;20038;-57
2022/08/29 13:31:20;;;;;;;10.98;5.00;;;34.90;99.30;;;;;;4981466;28;20134;-54
2022/08/29 13:33:48;;;;;;;7.35;4.47;;;35.20;98.60;;;;;;5022406;28;20034;-53
2022/08/29 13:36:26;;;;;;;8.65;4.72;;;35.30;98.00;;;;;;5021888;28;20037;-57
2022/08/29 13:39:16;;;;;;;8.07;4.40;;;35.30;98.30;;;;;;5019993;28;20030;-51
2022/08/29 13:41:43;;;;;;;5.60;4.38;;;35.50;97.40;;;;;;5018324;28;20406;-53
2022/08/29 13:44:55;;;;;;;7.45;4.57;;;35.70;95.80;;;;;;5025619;28;20052;-57
2022/08/29 13:47:38;;;;;;;7.25;4.88;;;34.90;97.30;;;;;;4949781;28;20042;-53
2022/08/29 13:50:10;;;;;;;9.05;5.40;;;35.30;97.60;;;;;;4947443;28;20035;-57
2022/08/29 13:52:36;;;;;;;10.38;5.00;;;35.50;97.20;;;;;;4965495;28;20126;-57
2022/08/29 13:55:04;;;;;;;5.40;4.38;;;35.20;97.10;;;;;;4950063;28;20031;-55
2022/08/29 13:57:31;;;;;;;6.57;4.72;;;35.40;96.20;;;;;;4964004;28;20238;-51
2022/08/29 13:59:57;;;;;;;7.35;5.63;;;35.30;96.60;;;;;;4967311;28;20058;-54
2022/08/29 14:02:41;;;;;;;6.60;4.78;;;35.20;97.00;;;;;;4967872;28;20031;-54
2022/08/29 14:05:08;;;;;;;9.75;5.15;;;34.70;96.90;;;;;;4965138;28;20035;-55
2022/08/29 14:07:36;;;;;;;6.93;5.10;;;34.70;96.90;;;;;;4959757;28;20110;-56
2022/08/29 14:10:05;;;;;;;11.35;4.88;;;35.10;98.10;;;;;;4964536;28;20034;-56
2022/08/29 14:12:31;;;;;;;11.18;5.07;;;35.30;96.80;;;;;;4961526;28;20086;-56
2022/08/29 14:14:57;;;;;;;5.30;4.68;;;35.60;96.70;;;;;;4962499;28;20045;-57
2022/08/29 14:17:23;;;;;;;5.65;4.55;;;35.00;96.60;;;;;;4962453;28;20043;-55
2022/08/29 14:19:49;;;;;;;8.25;5.03;;;35.10;96.90;;;;;;4963429;28;20087;-56
2022/08/29 14:22:15;;;;;;;5.38;4.53;;;35.50;96.50;;;;;;4963341;28;20045;-56
2022/08/29 14:24:41;;;;;;;7.07;4.93;;;35.60;96.10;;;;;;4999760;28;20044;-60
2022/08/29 14:27:08;;;;;;;6.28;4.20;;;35.80;96.30;;;;;;5018108;28;20037;-51
2022/08/29 14:29:35;;;;;;;5.35;4.72;;;35.70;95.90;;;;;;5019382;28;20033;-56
2022/08/29 14:32:01;;;;;;;5.30;4.38;;;35.30;96.20;;;;;;4970808;28;20048;-53
2022/08/29 14:34:27;;;;;;;7.07;4.30;;;35.30;95.90;;;;;;4988077;28;20038;-60
2022/08/29 14:36:53;;;;;;;7.50;4.75;;;35.10;96.00;;;;;;5022985;28;20045;-55
2022/08/29 14:39:19;;;;;;;7.72;4.40;;;34.80;96.60;;;;;;5019208;28;20029;-55
2022/08/29 14:41:45;;;;;;;6.05;5.03;;;34.70;95.90;;;;;;4973993;28;20559;-54
2022/08/29 14:44:10;;;;;;;11.55;5.05;;;34.80;96.40;;;;;;5018501;28;20693;-54
2022/08/29 14:46:36;;;;;;;7.03;4.20;;;34.60;96.20;;;;;;5021137;28;20072;-54
2022/08/29 14:49:03;;;;;;;6.65;4.00;;;34.60;96.70;;;;;;4985969;28;20038;-55
2022/08/29 14:51:29;;;;;;;6.43;4.25;;;34.70;96.30;;;;;;5024748;28;20125;-55
2022/08/29 14:53:55;;;;;;;9.52;4.70;;;34.60;96.10;;;;;;5020210;28;20366;-55
2022/08/29 14:56:27;;;;;;;7.22;5.25;;;34.70;95.90;;;;;;4987527;28;20044;-56
2022/08/29 14:58:52;;;;;;;9.43;4.90;;;34.70;96.90;;;;;;5020296;28;20029;-54
2022/08/29 15:01:18;;;;;;;7.05;4.88;;;34.50;97.80;;;;;;5016858;28;20036;-55
2022/08/29 15:03:44;;;;;;;8.73;5.18;;;34.00;97.20;;;;;;5022177;28;20115;-55
2022/08/29 15:06:10;;;;;;;6.28;4.60;;;34.20;98.20;;;;;;5021162;28;20033;-55
2022/08/29 15:08:36;;;;;;;4.68;4.10;;;34.30;97.30;;;;;;5018152;28;20422;-56
2022/08/29 15:11:02;;;;;;;6.13;4.53;;;34.10;96.30;;;;;;5004048;28;20037;-55
2022/08/29 15:13:27;;;;;;;6.03;4.53;;;33.80;96.40;;;;;;5017616;28;20439;-55
2022/08/29 15:15:53;;;;;;;12.10;7.90;;;33.40;96.50;;;;;;5021929;28;20030;-56
2022/08/29 15:18:20;;;;;;;8.90;7.00;;;33.20;98.10;;;;;;4986331;28;20037;-55
2022/08/29 15:20:46;;;;;;;9.15;6.22;;;32.70;99.30;;;;;;5023943;28;20034;-55
2022/08/29 15:23:12;;;;;;;6.57;5.78;;;31.80;99.50;;;;;;4982266;28;20052;-55
2022/08/29 15:25:38;;;;;;;6.97;5.60;;;31.60;99.90;;;;;;5020994;28;20029;-55
2022/08/29 15:28:04;;;;;;;8.85;5.57;;;31.40;99.90;;;;;;5019005;28;20120;-55
2022/08/29 15:30:30;;;;;;;8.10;5.18;;;31.10;99.90;;;;;;4970988;28;20401;-54
2022/08/29 15:32:56;;;;;;;6.88;5.30;;;30.90;99.90;;;;;;5020369;28;20029;-55
2022/08/29 15:35:22;;;;;;;6.75;6.05;;;;;;;;;;5024747;28;20634;-55
2022/08/29 15:37:48;;;;;;;5.63;5.05;;;;;;;;;;5015218;28;20038;-55
2022/08/29 15:40:14;;;;;;;7.32;4.97;;;;;;;;;;5018853;28;20469;-55
2022/08/29 15:42:40;;;;;;;7.97;5.35;;;;;;;;;;5019873;28;20053;-55
2022/08/29 15:45:07;;;;;;;11.13;5.80;;;;;;;;;;5020927;28;20034;-54
2022/08/29 15:47:34;;;;;;;6.93;4.93;;;;;;;;;;5017336;28;20034;-55
2022/08/29 15:50:00;;;;;;;10.05;5.28;;;29.50;99.90;;;;;;5023191;28;20035;-54
2022/08/29 15:52:26;;;;;;;7.78;5.30;;;;;;;;;;5018030;28;20436;-55
2022/08/29 15:54:53;;;;;;;6.47;5.47;;;29.50;99.90;;;;;;5021703;28;20033;-54
2022/08/29 15:57:19;;;;;;;10.13;6.15;;;29.40;99.90;;;;;;5023716;28;20037;-54
2022/08/29 15:59:45;;;;;;;7.90;5.50;;;29.50;99.90;;;;;;5018927;28;20072;-55
2022/08/29 16:02:12;;;;;;;12.63;6.57;;;29.40;99.90;;;;;;5019602;28;20029;-54
2022/08/29 16:04:46;;;;;;;10.15;5.63;;;29.40;99.90;;;;;;5022814;28;20033;-55
2022/08/29 16:07:12;;;;;;;7.38;4.88;;;29.40;99.90;;;;;;5024966;28;20760;-54
2022/08/29 16:09:42;;;;;;;6.03;5.43;;;29.40;99.90;;;;;;5022551;28;20115;-54
2022/08/29 16:12:09;;;;;;;9.85;5.60;;;29.50;99.90;;;;;;5025472;28;20125;-54
2022/08/29 16:14:35;;;;;;;8.63;5.10;;;29.40;99.90;;;;;;5022104;28;20029;-54
2022/08/29 16:17:02;;;;;;;10.68;5.20;;;29.30;99.90;;;;;;5017557;28;20033;-54
2022/08/29 16:19:28;;;;;;;6.85;5.60;;;29.20;99.90;;;;;;4992864;28;20088;-54
2022/08/29 16:21:58;;;;;;;34.53;15.50;;;29.00;99.90;;;;;;4972493;28;20037;-54
2022/08/29 16:24:26;;;;;;;13.65;8.23;;;29.10;99.90;;;;;;4969116;28;20073;-55
2022/08/29 16:26:52;;;;;;;8.38;5.63;;;29.20;99.90;;;;;;5023635;28;20036;-54
2022/08/29 16:29:18;;;;;;;6.60;5.85;;;29.10;99.90;;;;;;5022305;28;20086;-54
2022/08/29 16:31:44;;;;;;;7.95;5.45;;;29.10;99.90;;;;;;5028841;28;20444;-54
2022/08/29 16:34:10;;;;;;;9.07;5.47;;;29.10;99.90;;;;;;5019732;28;20033;-55
2022/08/29 16:36:36;;;;;;;7.55;5.40;;;29.10;99.90;;;;;;5025706;28;20025;-54
2022/08/29 16:39:03;;;;;;;7.75;5.30;;;29.00;99.90;;;;;;5005816;28;20092;-54
2022/08/29 16:41:29;;;;;;;6.43;5.55;;;28.90;99.90;;;;;;5027913;28;20052;-55
2022/08/29 16:43:54;;;;;;;7.30;5.10;;;28.90;99.90;;;;;;5023427;28;20029;-54